createdAt,value
2022-10-03T00:02:14.841Z,2.23
2022-10-03T00:05:07.354Z,1.90
2022-10-03T00:07:56.519Z,2.40
2022-10-03T00:10:37.050Z,2.10
2022-10-03T00:13:18.007Z,2.17
2022-10-03T00:15:56.812Z,2.30
2022-10-03T00:18:41.088Z,2.07
2022-10-03T00:21:41.528Z,2.10
2022-10-03T00:24:25.156Z,2.00
2022-10-03T00:27:03.414Z,1.97
2022-10-03T00:30:06.101Z,1.90
2022-10-03T00:32:48.073Z,1.57
2022-10-03T00:35:31.503Z,1.60
2022-10-03T00:38:22.057Z,1.80
2022-10-03T00:41:54.695Z,2.17
2022-10-03T00:45:33.675Z,1.80
2022-10-03T00:49:02.426Z,2.60
2022-10-03T00:51:53.878Z,2.10
2022-10-03T00:54:46.272Z,2.30
2022-10-03T00:57:36.262Z,2.30
2022-10-03T01:00:20.090Z,2.40
2022-10-03T01:03:06.456Z,2.40
2022-10-03T01:05:50.731Z,2.23
2022-10-03T01:08:40.694Z,2.27
2022-10-03T01:11:26.289Z,2.30
2022-10-03T01:14:10.810Z,2.40
2022-10-03T01:16:52.948Z,2.23
2022-10-03T01:20:01.727Z,2.00
2022-10-03T01:23:19.014Z,2.40
2022-10-03T01:25:54.314Z,2.80
2022-10-03T01:29:02.328Z,2.87
2022-10-03T01:31:41.924Z,2.43
2022-10-03T01:34:21.831Z,2.57
2022-10-03T01:37:06.134Z,2.50
2022-10-03T01:39:43.266Z,2.40
2022-10-03T01:42:19.978Z,2.50
2022-10-03T01:45:10.235Z,2.40
2022-10-03T01:47:51.428Z,2.50
2022-10-03T01:50:30.233Z,2.57
2022-10-03T01:53:08.408Z,2.90
2022-10-03T01:55:55.810Z,3.37
2022-10-03T01:58:31.238Z,3.00
2022-10-03T02:01:08.303Z,3.23
2022-10-03T02:03:46.890Z,3.67
2022-10-03T02:06:31.289Z,3.93
2022-10-03T02:09:08.882Z,3.60
2022-10-03T02:11:42.902Z,4.37
2022-10-03T02:14:23.452Z,4.47
2022-10-03T02:17:02.764Z,5.07
2022-10-03T02:19:37.354Z,4.40
2022-10-03T02:22:17.062Z,4.57
2022-10-03T02:24:56.779Z,4.10
2022-10-03T02:28:14.777Z,4.07
2022-10-03T02:31:13.985Z,4.30
2022-10-03T02:34:18.166Z,4.30
2022-10-03T02:37:28.284Z,4.30
2022-10-03T02:40:39.523Z,4.37
2022-10-03T02:43:36.240Z,3.67
2022-10-03T02:46:38.003Z,4.57
2022-10-03T02:49:52.100Z,4.30
2022-10-03T02:53:07.572Z,3.83
2022-10-03T02:56:16.356Z,4.40
2022-10-03T02:59:11.787Z,4.30
2022-10-03T03:02:18.310Z,4.13
2022-10-03T03:05:24.318Z,3.93
2022-10-03T03:08:25.296Z,3.77
2022-10-03T03:11:28.881Z,4.57
2022-10-03T03:14:42.570Z,4.10
2022-10-03T03:17:25.070Z,3.47
2022-10-03T03:20:17.519Z,3.37
2022-10-03T03:23:10.216Z,3.73
2022-10-03T03:25:58.938Z,3.53
2022-10-03T03:28:38.441Z,4.27
2022-10-03T03:31:13.678Z,4.63
2022-10-03T03:34:00.150Z,4.50
2022-10-03T03:36:41.320Z,4.10
2022-10-03T03:39:32.048Z,3.90
2022-10-03T03:42:24.723Z,4.10
2022-10-03T03:45:09.624Z,4.33
2022-10-03T03:48:05.505Z,4.47
2022-10-03T03:50:52.889Z,4.60
2022-10-03T03:53:44.584Z,4.17
2022-10-03T03:56:31.976Z,4.23
2022-10-03T03:59:14.691Z,5.03
2022-10-03T04:02:07.408Z,4.53
2022-10-03T04:04:51.976Z,4.77
2022-10-03T04:07:38.691Z,4.47
2022-10-03T04:10:26.613Z,4.17
2022-10-03T04:13:40.596Z,3.97
2022-10-03T04:17:00.670Z,4.60
2022-10-03T04:19:42.432Z,3.97
2022-10-03T04:22:31.191Z,4.30
2022-10-03T04:25:47.271Z,3.80
2022-10-03T04:28:42.116Z,3.77
2022-10-03T04:31:31.991Z,3.43
2022-10-03T04:34:31.029Z,3.90
2022-10-03T04:37:16.386Z,3.60
2022-10-03T04:39:55.399Z,4.43
2022-10-03T04:42:40.895Z,4.27
2022-10-03T04:45:36.895Z,4.33
2022-10-03T04:48:16.520Z,4.37
2022-10-03T04:50:57.390Z,3.83
2022-10-03T04:53:42.357Z,4.27
2022-10-03T04:56:39.893Z,4.80
2022-10-03T04:59:36.208Z,4.37
2022-10-03T05:02:12.686Z,4.60
2022-10-03T05:05:01.797Z,4.80
2022-10-03T05:07:41.503Z,4.67
2022-10-03T05:10:31.795Z,4.07
2022-10-03T05:13:11.377Z,4.10
2022-10-03T05:15:56.407Z,4.47
2022-10-03T05:18:35.316Z,4.00
2022-10-03T05:21:10.386Z,4.40
2022-10-03T05:24:03.606Z,4.20
2022-10-03T05:26:48.148Z,4.97
2022-10-03T05:29:28.328Z,4.53
2022-10-03T05:32:18.071Z,4.07
2022-10-03T05:35:07.218Z,4.27
2022-10-03T05:38:11.631Z,4.93
2022-10-03T05:40:45.069Z,4.10
2022-10-03T05:43:29.511Z,5.20
2022-10-03T05:46:06.237Z,5.00
2022-10-03T05:48:49.642Z,4.97
2022-10-03T05:52:01.520Z,4.67
2022-10-03T05:54:57.663Z,4.53
2022-10-03T05:57:55.247Z,5.30
2022-10-03T06:00:26.171Z,4.43
2022-10-03T06:03:37.773Z,4.80
2022-10-03T06:06:28.811Z,4.50
2022-10-03T06:09:36.234Z,4.87
2022-10-03T06:12:11.396Z,4.60
2022-10-03T06:15:19.981Z,5.17
2022-10-03T06:18:23.006Z,4.43
2022-10-03T06:21:23.193Z,5.03
2022-10-03T06:24:38.383Z,4.60
2022-10-03T06:28:00.560Z,5.40
2022-10-03T06:30:53.674Z,6.60
2022-10-03T06:34:09.317Z,5.97
2022-10-03T06:37:09.394Z,5.80
2022-10-03T06:40:48.237Z,4.57
2022-10-03T06:43:50.156Z,5.27
2022-10-03T06:47:11.740Z,6.53
2022-10-03T06:50:19.980Z,5.47
2022-10-03T06:53:45.899Z,6.13
2022-10-03T06:56:55.604Z,5.77
2022-10-03T07:00:03.025Z,6.27
2022-10-03T07:03:05.174Z,6.37
2022-10-03T07:06:24.375Z,6.33
2022-10-03T07:09:37.324Z,6.10
2022-10-03T07:13:13.051Z,6.63
2022-10-03T07:16:27.655Z,6.77
2022-10-03T07:19:43.594Z,7.50
2022-10-03T07:22:57.452Z,6.50
2022-10-03T07:26:31.837Z,7.67
2022-10-03T07:29:24.523Z,6.90
2022-10-03T07:32:22.796Z,7.13
2022-10-03T07:36:09.375Z,7.53
2022-10-03T07:39:16.834Z,7.30
2022-10-03T07:42:33.035Z,7.33
2022-10-03T07:45:34.845Z,7.63
2022-10-03T07:48:53.189Z,8.43
2022-10-03T07:51:29.636Z,7.23
2022-10-03T07:54:44.057Z,7.60
2022-10-03T07:57:38.125Z,7.80
2022-10-03T08:00:22.711Z,8.13
2022-10-03T08:03:54.305Z,6.80
2022-10-03T08:06:29.954Z,7.97
2022-10-03T08:09:42.728Z,7.37
2022-10-03T08:12:58.508Z,8.03
2022-10-03T08:15:41.037Z,7.80
2022-10-03T08:18:41.892Z,7.70
2022-10-03T08:21:16.197Z,7.27
2022-10-03T08:25:01.961Z,7.40
2022-10-03T08:28:04.141Z,9.33
2022-10-03T08:30:55.181Z,7.53
2022-10-03T08:33:48.608Z,9.50
2022-10-03T08:36:53.413Z,7.73
2022-10-03T08:40:02.032Z,6.53
2022-10-03T08:43:28.043Z,7.10
2022-10-03T08:46:29.861Z,8.83
2022-10-03T08:49:14.395Z,7.63
2022-10-03T08:52:10.799Z,7.90
2022-10-03T08:55:23.719Z,7.30
2022-10-03T08:58:40.149Z,6.90
2022-10-03T09:01:29.098Z,7.13
2022-10-03T09:04:48.893Z,7.80
2022-10-03T09:07:55.761Z,7.93
2022-10-03T09:10:59.464Z,7.60
2022-10-03T09:14:37.523Z,6.60
2022-10-03T09:17:56.790Z,5.67
2022-10-03T09:21:07.485Z,6.00
2022-10-03T09:24:14.596Z,5.93
2022-10-03T09:27:35.871Z,6.73
2022-10-03T09:30:27.059Z,5.90
2022-10-03T09:33:50.605Z,5.80
2022-10-03T09:37:18.208Z,6.13
2022-10-03T09:40:37.718Z,6.53
2022-10-03T09:44:02.089Z,5.70
2022-10-03T09:47:26.322Z,5.93
2022-10-03T09:51:01.178Z,5.50
2022-10-03T09:54:28.162Z,5.60
2022-10-03T09:58:08.684Z,5.80
2022-10-03T10:01:08.346Z,5.20
2022-10-03T10:04:53.638Z,5.13
2022-10-03T10:08:27.780Z,5.87
2022-10-03T10:11:13.812Z,5.37
2022-10-03T10:14:37.798Z,5.70
2022-10-03T10:18:00.480Z,5.93
2022-10-03T10:21:01.573Z,6.47
2022-10-03T10:23:47.878Z,5.90
2022-10-03T10:26:48.295Z,6.53
2022-10-03T10:29:55.746Z,7.10
2022-10-03T10:33:21.732Z,6.90
2022-10-03T10:36:37.047Z,7.13
2022-10-03T10:39:57.108Z,5.60
2022-10-03T10:43:26.231Z,5.10
2022-10-03T10:46:31.357Z,6.97
2022-10-03T10:49:54.506Z,6.33
2022-10-03T10:53:06.202Z,4.97
2022-10-03T10:56:21.530Z,4.63
2022-10-03T10:59:50.832Z,4.30
2022-10-03T11:03:11.898Z,4.70
2022-10-03T11:06:37.108Z,3.87
2022-10-03T11:09:38.172Z,4.47
2022-10-03T11:13:06.969Z,4.17
2022-10-03T11:16:50.105Z,4.10
2022-10-03T11:20:03.908Z,4.40
2022-10-03T11:23:27.098Z,3.87
2022-10-03T11:27:01.344Z,5.07
2022-10-03T11:30:19.226Z,4.07
2022-10-03T11:33:50.435Z,4.23
2022-10-03T11:37:03.801Z,5.20
2022-10-03T11:39:50.319Z,4.00
2022-10-03T11:42:33.325Z,3.97
2022-10-03T11:45:04.966Z,4.03
2022-10-03T11:47:53.989Z,4.10
2022-10-03T11:50:52.736Z,4.10
2022-10-03T11:53:39.915Z,4.10
2022-10-03T11:56:34.240Z,3.30
2022-10-03T11:59:39.268Z,3.07
2022-10-03T12:02:43.206Z,2.60
2022-10-03T12:05:23.276Z,2.80
2022-10-03T12:08:25.551Z,3.17
2022-10-03T12:11:06.292Z,3.13
2022-10-03T12:13:44.504Z,3.10
2022-10-03T12:16:24.002Z,3.13
2022-10-03T12:19:05.358Z,2.90
2022-10-03T12:21:52.212Z,3.00
2022-10-03T12:24:27.972Z,3.10
2022-10-03T12:27:07.396Z,3.17
2022-10-03T12:29:44.180Z,3.33
2022-10-03T12:32:27.974Z,3.00
2022-10-03T12:35:14.760Z,3.03
2022-10-03T12:37:52.658Z,2.90
2022-10-03T12:40:27.834Z,2.60
2022-10-03T12:43:09.348Z,3.00
2022-10-03T12:45:43.358Z,3.00
2022-10-03T12:48:38.014Z,2.90
2022-10-03T12:51:22.407Z,2.83
2022-10-03T12:54:05.316Z,3.00
2022-10-03T12:56:45.989Z,3.20
2022-10-03T12:59:26.135Z,2.77
2022-10-03T13:02:22.303Z,2.97
2022-10-03T13:05:23.486Z,3.00
2022-10-03T13:07:56.750Z,2.83
2022-10-03T13:10:38.832Z,2.43
2022-10-03T13:13:28.447Z,2.93
2022-10-03T13:16:16.741Z,2.40
2022-10-03T13:18:54.611Z,2.70
2022-10-03T13:21:47.040Z,3.10
2022-10-03T13:24:31.993Z,3.10
2022-10-03T13:27:26.953Z,2.50
2022-10-03T13:30:05.266Z,3.00
2022-10-03T13:32:37.020Z,2.60
2022-10-03T13:35:42.005Z,2.83
2022-10-03T13:38:58.664Z,3.00
2022-10-03T13:42:00.607Z,3.03
2022-10-03T13:44:39.805Z,3.67
2022-10-03T13:47:28.906Z,3.00
2022-10-03T13:50:01.589Z,3.03
2022-10-03T13:52:40.160Z,2.73
2022-10-03T13:55:22.038Z,3.00
2022-10-03T13:58:13.303Z,2.57
2022-10-03T14:01:02.092Z,3.13
2022-10-03T14:03:45.429Z,2.90
2022-10-03T14:06:25.092Z,3.03
2022-10-03T14:09:23.023Z,3.20
2022-10-03T14:12:05.479Z,2.13
2022-10-03T14:14:58.035Z,2.93
2022-10-03T14:17:39.515Z,2.73
2022-10-03T14:20:25.185Z,2.60
2022-10-03T14:23:17.022Z,2.30
2022-10-03T14:25:52.808Z,2.50
2022-10-03T14:28:29.438Z,2.50
2022-10-03T14:31:08.227Z,2.63
2022-10-03T14:33:46.311Z,2.70
2022-10-03T14:36:34.540Z,2.40
2022-10-03T14:39:29.760Z,3.43
2022-10-03T14:42:37.905Z,2.60
2022-10-03T14:45:11.535Z,2.47
2022-10-03T14:47:43.746Z,2.37
2022-10-03T14:50:20.284Z,2.77
2022-10-03T14:53:01.992Z,2.33
2022-10-03T14:55:35.000Z,2.53
2022-10-03T14:58:11.481Z,2.90
2022-10-03T15:00:45.238Z,2.93
2022-10-03T15:03:30.470Z,2.33
2022-10-03T15:06:21.154Z,2.50
2022-10-03T15:08:54.479Z,2.97
2022-10-03T15:11:29.746Z,2.80
2022-10-03T15:14:02.581Z,3.50
2022-10-03T15:16:37.238Z,2.37
2022-10-03T15:19:11.091Z,2.53
2022-10-03T15:21:43.975Z,2.70
2022-10-03T15:24:25.145Z,2.67
2022-10-03T15:27:03.116Z,2.23
2022-10-03T15:29:34.118Z,2.73
2022-10-03T15:32:08.342Z,2.80
2022-10-03T15:34:42.141Z,2.57
2022-10-03T15:37:19.503Z,2.80
2022-10-03T15:39:52.491Z,2.00
2022-10-03T15:42:29.893Z,2.70
2022-10-03T15:45:03.771Z,2.40
2022-10-03T15:47:36.689Z,2.43
2022-10-03T15:50:16.551Z,2.20
2022-10-03T15:52:49.739Z,2.80
2022-10-03T15:55:24.192Z,2.37
2022-10-03T15:58:10.996Z,2.63
2022-10-03T16:00:42.697Z,2.83
2022-10-03T16:03:18.453Z,2.87
2022-10-03T16:06:04.175Z,2.40
2022-10-03T16:08:36.931Z,2.37
2022-10-03T16:11:14.198Z,2.43
2022-10-03T16:13:47.637Z,2.60
2022-10-03T16:16:20.381Z,2.53
2022-10-03T16:19:01.679Z,2.60
2022-10-03T16:21:48.642Z,2.57
2022-10-03T16:24:29.673Z,2.70
2022-10-03T16:27:08.043Z,2.60
2022-10-03T16:29:39.935Z,2.27
2022-10-03T16:32:11.123Z,2.40
2022-10-03T16:34:45.379Z,2.80
2022-10-03T16:37:23.176Z,2.70
2022-10-03T16:40:00.439Z,2.80
2022-10-03T16:42:40.488Z,2.67
2022-10-03T16:45:23.378Z,2.80
2022-10-03T16:48:13.189Z,3.30
2022-10-03T16:50:49.967Z,3.37
2022-10-03T16:53:19.066Z,2.63
2022-10-03T16:55:55.405Z,2.70
2022-10-03T16:58:31.273Z,2.43
2022-10-03T17:03:59.854Z,3.03
2022-10-03T17:06:33.339Z,2.53
2022-10-03T17:09:08.451Z,2.90
2022-10-03T17:11:39.804Z,3.00
2022-10-03T17:14:10.144Z,3.37
2022-10-03T17:16:47.741Z,2.90
2022-10-03T17:19:27.955Z,2.93
2022-10-03T17:22:03.681Z,2.80
2022-10-03T17:24:46.460Z,3.47
2022-10-03T17:27:27.763Z,3.63
2022-10-03T17:30:03.556Z,2.90
2022-10-03T17:32:38.839Z,2.93
2022-10-03T17:35:19.018Z,4.40
2022-10-03T17:38:49.426Z,4.33
2022-10-03T17:41:19.424Z,3.10
2022-10-03T17:44:00.524Z,5.37
2022-10-03T17:46:40.753Z,8.70
2022-10-03T17:49:21.866Z,9.63
2022-10-03T17:51:54.260Z,9.47
2022-10-03T17:54:29.743Z,10.07
2022-10-03T17:57:06.068Z,9.50
2022-10-03T17:59:45.255Z,10.27
2022-10-03T18:02:22.144Z,6.73
2022-10-03T18:05:01.903Z,6.10
2022-10-03T18:07:31.185Z,4.60
2022-10-03T18:10:01.316Z,4.93
2022-10-03T18:12:36.130Z,4.20
2022-10-03T18:15:46.913Z,4.17
2022-10-03T18:18:58.932Z,3.83
2022-10-03T18:21:41.234Z,4.20
2022-10-03T18:24:44.191Z,4.20
2022-10-03T18:28:13.227Z,5.00
2022-10-03T18:30:50.927Z,4.47
2022-10-03T18:33:25.082Z,5.10
2022-10-03T18:35:54.230Z,4.90
2022-10-03T18:38:24.601Z,4.17
2022-10-03T18:40:57.738Z,3.17
2022-10-03T18:43:37.461Z,4.47
2022-10-03T18:46:16.388Z,5.77
2022-10-03T18:49:35.102Z,5.77
2022-10-03T18:52:11.479Z,13.33
2022-10-03T18:54:57.212Z,11.07
2022-10-03T18:57:35.370Z,8.30
2022-10-03T19:00:18.074Z,4.57
2022-10-03T19:02:53.327Z,3.87
2022-10-03T19:05:25.867Z,2.83
2022-10-03T19:08:10.154Z,3.17
2022-10-03T19:10:45.811Z,2.97
2022-10-03T19:13:27.071Z,3.30
2022-10-03T19:16:17.954Z,3.57
2022-10-03T19:18:53.861Z,3.10
2022-10-03T19:21:22.630Z,2.67
2022-10-03T19:23:58.415Z,2.97
2022-10-03T19:26:36.040Z,2.87
2022-10-03T19:29:09.327Z,3.30
2022-10-03T19:31:41.983Z,3.60
2022-10-03T19:34:22.991Z,3.20
2022-10-03T19:36:53.328Z,3.67
2022-10-03T19:39:23.229Z,3.20
2022-10-03T19:41:56.862Z,3.60
2022-10-03T19:44:27.596Z,3.30
2022-10-03T19:47:13.347Z,3.77
2022-10-03T19:50:04.726Z,5.57
2022-10-03T19:52:35.368Z,4.53
2022-10-03T19:55:13.735Z,3.70
2022-10-03T19:57:51.727Z,3.30
2022-10-03T20:00:28.902Z,2.40
2022-10-03T20:03:12.979Z,2.37
2022-10-03T20:05:52.353Z,2.60
2022-10-03T20:08:30.381Z,2.50
2022-10-03T20:11:29.977Z,3.03
2022-10-03T20:13:58.794Z,2.70
2022-10-03T20:16:33.468Z,2.60
2022-10-03T20:19:10.580Z,2.40
2022-10-03T20:21:39.118Z,2.30
2022-10-03T20:24:14.200Z,2.80
2022-10-03T20:26:50.572Z,2.40
2022-10-03T20:29:27.113Z,3.10
2022-10-03T20:32:01.602Z,2.70
2022-10-03T20:34:34.433Z,2.90
2022-10-03T20:37:26.334Z,3.07
2022-10-03T20:40:05.990Z,3.60
2022-10-03T20:42:37.478Z,3.70
2022-10-03T20:45:14.995Z,5.10
2022-10-03T20:47:56.052Z,3.57
2022-10-03T20:50:30.586Z,4.20
2022-10-03T20:53:01.826Z,3.93
2022-10-03T20:55:34.205Z,4.07
2022-10-03T20:58:17.134Z,3.57
2022-10-03T21:00:50.444Z,3.87
2022-10-03T21:03:30.440Z,4.27
2022-10-03T21:06:01.095Z,4.00
2022-10-03T21:08:36.249Z,3.47
2022-10-03T21:11:16.080Z,4.07
2022-10-03T21:13:49.739Z,4.30
2022-10-03T21:16:22.200Z,4.60
2022-10-03T21:18:53.118Z,4.53
2022-10-03T21:21:27.953Z,3.63
2022-10-03T21:24:03.973Z,4.13
2022-10-03T21:26:38.470Z,4.17
2022-10-03T21:29:19.466Z,4.50
2022-10-03T21:31:55.698Z,4.13
2022-10-03T21:34:32.119Z,4.13
2022-10-03T21:37:13.924Z,4.80
2022-10-03T21:40:00.745Z,4.20
2022-10-03T21:42:35.928Z,4.43
2022-10-03T21:45:22.168Z,4.50
2022-10-03T21:47:57.103Z,4.20
2022-10-03T21:50:30.835Z,4.50
2022-10-03T21:53:17.952Z,4.77
2022-10-03T21:56:19.447Z,4.63
2022-10-03T21:59:15.849Z,4.57
2022-10-03T22:01:54.410Z,5.30
2022-10-03T22:04:30.032Z,4.73
2022-10-03T22:07:06.713Z,4.77
2022-10-03T22:09:36.389Z,4.43
2022-10-03T22:12:08.112Z,4.53
2022-10-03T22:14:45.003Z,4.07
2022-10-03T22:17:24.341Z,3.80
2022-10-03T22:19:58.348Z,4.30
2022-10-03T22:22:47.245Z,3.97
2022-10-03T22:25:32.020Z,4.23
2022-10-03T22:28:10.175Z,4.23
2022-10-03T22:30:50.246Z,4.13
2022-10-03T22:33:32.592Z,3.60
2022-10-03T22:36:03.979Z,4.13
2022-10-03T22:38:36.440Z,4.13
2022-10-03T22:41:13.311Z,3.97
2022-10-03T22:43:43.330Z,3.70
2022-10-03T22:46:18.311Z,3.80
2022-10-03T22:48:51.291Z,3.20
2022-10-03T22:51:22.456Z,3.50
2022-10-03T22:53:56.998Z,3.00
2022-10-03T22:56:45.336Z,3.30
2022-10-03T22:59:20.242Z,3.87
2022-10-03T23:01:52.408Z,3.80
2022-10-03T23:04:31.662Z,3.53
2022-10-03T23:07:45.915Z,3.80
2022-10-03T23:10:34.018Z,4.37
2022-10-03T23:13:11.057Z,3.90
2022-10-03T23:15:43.255Z,3.83
2022-10-03T23:18:44.398Z,4.30
2022-10-03T23:21:13.674Z,4.00
2022-10-03T23:24:01.905Z,4.30
2022-10-03T23:27:21.374Z,4.53
2022-10-03T23:30:50.861Z,4.57
2022-10-03T23:33:55.626Z,3.70
2022-10-03T23:36:25.530Z,4.67
2022-10-03T23:38:59.642Z,3.90
2022-10-03T23:41:45.650Z,4.20
2022-10-03T23:44:49.414Z,4.03
2022-10-03T23:47:27.470Z,4.57
2022-10-03T23:49:57.011Z,4.67
2022-10-03T23:52:31.627Z,4.60
2022-10-03T23:55:06.699Z,4.23
2022-10-03T23:57:40.981Z,4.80
